Terminal Aerodrome Forecast
Issued by NWS

Home | Current Version | Previous Version | Text Only | Print | Product List | Glossary On
Versions: 1 2 3 4 5 6 7 8 9 10 11 12
000
FTUS45 KTFX 011129
TAFGTF
TAF
KGTF 011129Z 0112/0212 22010KT P6SM SKC
     FM012000 28012G20KT P6SM SKC
     FM020400 04007KT P6SM SKC
     FM020900 23006KT P6SM SCT250=

USA.gov is the U.S. government's official web portal to all federal, state and local government web resources and services.